createdAt,value
2024-02-24T00:00:50.271Z,30.78
2024-02-24T00:01:50.210Z,30.75
2024-02-24T00:02:50.244Z,30.86
2024-02-24T00:03:50.417Z,30.80
2024-02-24T00:04:50.393Z,30.76
2024-02-24T00:05:50.954Z,30.83
2024-02-24T00:06:50.392Z,30.83
2024-02-24T00:07:50.398Z,30.80
2024-02-24T00:08:50.442Z,30.81
2024-02-24T00:09:50.463Z,30.81
2024-02-24T00:10:50.577Z,30.86
2024-02-24T00:11:50.554Z,30.80
2024-02-24T00:12:50.566Z,30.89
2024-02-24T00:13:50.592Z,30.80
2024-02-24T00:14:50.656Z,30.83
2024-02-24T00:15:50.682Z,30.86
2024-02-24T00:16:50.694Z,30.83
2024-02-24T00:17:50.862Z,30.86
2024-02-24T00:18:50.799Z,30.89
2024-02-24T00:19:50.801Z,30.80
2024-02-24T00:20:50.883Z,30.91
2024-02-24T00:21:50.859Z,30.91
2024-02-24T00:22:50.918Z,30.86
2024-02-24T00:23:51.044Z,30.76
2024-02-24T00:24:51.073Z,30.84
2024-02-24T00:25:51.133Z,30.84
2024-02-24T00:26:51.109Z,30.83
2024-02-24T00:27:51.108Z,30.84
2024-02-24T00:28:51.157Z,30.75
2024-02-24T00:29:51.117Z,30.83
2024-02-24T00:30:51.175Z,30.78
2024-02-24T00:31:51.231Z,30.80
2024-02-24T00:32:51.401Z,30.91
2024-02-24T00:33:51.399Z,30.87
2024-02-24T00:34:51.291Z,30.87
2024-02-24T00:35:51.316Z,30.81
2024-02-24T00:36:51.360Z,30.83
2024-02-24T00:37:51.393Z,30.75
2024-02-24T00:38:51.416Z,30.76
2024-02-24T00:39:51.482Z,30.80
2024-02-24T00:40:51.499Z,30.90
2024-02-24T00:41:51.537Z,30.80
2024-02-24T00:42:51.583Z,30.78
2024-02-24T00:43:51.577Z,30.81
2024-02-24T00:44:51.632Z,30.86
2024-02-24T00:45:51.729Z,30.78
2024-02-24T00:46:51.680Z,30.81
2024-02-24T00:47:51.876Z,30.83
2024-02-24T00:48:51.827Z,30.80
2024-02-24T00:49:51.802Z,30.81
2024-02-24T00:50:51.833Z,30.80
2024-02-24T00:51:51.849Z,30.86
2024-02-24T00:52:51.885Z,30.78
2024-02-24T00:53:51.964Z,30.76
2024-02-24T00:54:51.945Z,30.84
2024-02-24T00:55:51.977Z,30.76
2024-02-24T00:56:52.051Z,30.74
2024-02-24T00:57:52.042Z,30.78
2024-02-24T00:58:52.133Z,30.83
2024-02-24T00:59:52.118Z,30.87
2024-02-24T01:00:52.236Z,30.86
2024-02-24T01:01:52.188Z,30.86
2024-02-24T01:02:52.237Z,30.84
2024-02-24T01:03:52.303Z,30.86
2024-02-24T01:04:52.309Z,30.83
2024-02-24T01:05:52.350Z,30.84
2024-02-24T01:06:52.405Z,30.83
2024-02-24T01:07:52.379Z,30.74
2024-02-24T01:08:52.446Z,30.75
2024-02-24T01:09:52.465Z,30.84
2024-02-24T01:10:52.528Z,30.86
2024-02-24T01:11:52.583Z,30.91
2024-02-24T01:12:52.576Z,30.86
2024-02-24T01:13:52.590Z,30.83
2024-02-24T01:14:54.608Z,30.83
2024-02-24T01:15:52.660Z,30.87
2024-02-24T01:16:52.677Z,30.74
2024-02-24T01:17:52.805Z,30.83
2024-02-24T01:18:52.899Z,30.90
2024-02-24T01:19:52.767Z,30.80
2024-02-24T01:20:52.918Z,30.87
2024-02-24T01:21:55.217Z,30.89
2024-02-24T01:22:52.867Z,30.86
2024-02-24T01:23:53.012Z,30.87
2024-02-24T01:24:52.925Z,30.83
2024-02-24T01:25:52.988Z,30.74
2024-02-24T01:26:53.015Z,30.75
2024-02-24T01:27:53.022Z,30.78
2024-02-24T01:28:53.064Z,30.83
2024-02-24T01:29:53.226Z,30.76
2024-02-24T01:30:53.148Z,30.76
2024-02-24T01:31:53.163Z,30.78
2024-02-24T01:32:53.399Z,30.80
2024-02-24T01:33:53.359Z,30.87
2024-02-24T01:34:53.312Z,30.78
2024-02-24T01:35:53.307Z,30.78
2024-02-24T01:36:53.368Z,30.86
2024-02-24T01:37:53.375Z,30.80
2024-02-24T01:38:53.358Z,30.78
2024-02-24T01:39:53.455Z,30.80
2024-02-24T01:40:53.458Z,30.78
2024-02-24T01:41:53.561Z,30.81
2024-02-24T01:42:53.558Z,30.78
2024-02-24T01:43:53.555Z,30.83
2024-02-24T01:44:53.622Z,30.76
2024-02-24T01:45:53.717Z,30.78
2024-02-24T01:46:53.672Z,30.64
2024-02-24T01:47:53.897Z,30.76
2024-02-24T01:48:53.838Z,30.65
2024-02-24T01:49:53.743Z,30.76
2024-02-24T01:50:53.838Z,30.71
2024-02-24T01:51:53.797Z,30.65
2024-02-24T01:52:53.870Z,30.69
2024-02-24T01:53:53.912Z,30.76
2024-02-24T01:54:53.869Z,30.71
2024-02-24T01:55:53.950Z,30.62
2024-02-24T01:56:54.049Z,30.69
2024-02-24T01:57:54.277Z,30.69
2024-02-24T01:58:54.053Z,30.78
2024-02-24T01:59:54.039Z,30.69
2024-02-24T02:00:54.137Z,30.65
2024-02-24T02:01:54.153Z,30.75
2024-02-24T02:02:54.270Z,30.67
2024-02-24T02:03:54.203Z,30.69
2024-02-24T02:04:54.380Z,30.72
2024-02-24T02:05:54.390Z,30.71
2024-02-24T02:06:54.364Z,30.75
2024-02-24T02:07:54.351Z,30.76
2024-02-24T02:08:54.417Z,30.75
2024-02-24T02:09:54.428Z,30.72
2024-02-24T02:10:54.465Z,30.71
2024-02-24T02:12:02.832Z,30.72
2024-02-24T02:12:54.560Z,30.74
2024-02-24T02:13:54.544Z,30.72
2024-02-24T02:14:54.572Z,30.72
2024-02-24T02:15:54.603Z,30.71
2024-02-24T02:16:54.636Z,30.71
2024-02-24T02:17:54.781Z,30.76
2024-02-24T02:18:54.855Z,30.78
2024-02-24T02:19:54.742Z,30.78
2024-02-24T02:20:54.838Z,30.81
2024-02-24T02:21:54.797Z,30.80
2024-02-24T02:22:54.828Z,30.78
2024-02-24T02:23:54.902Z,30.81
2024-02-24T02:24:54.908Z,30.83
2024-02-24T02:25:54.935Z,30.78
2024-02-24T02:26:55.006Z,30.75
2024-02-24T02:27:54.995Z,30.83
2024-02-24T02:28:55.032Z,30.81
2024-02-24T02:29:55.059Z,30.81
2024-02-24T02:30:55.113Z,30.84
2024-02-24T02:31:55.134Z,30.87
2024-02-24T02:32:55.248Z,30.84
2024-02-24T02:33:55.252Z,30.81
2024-02-24T02:34:55.253Z,30.78
2024-02-24T02:35:55.266Z,30.80
2024-02-24T02:36:55.299Z,30.76
2024-02-24T02:37:55.331Z,30.76
2024-02-24T02:38:55.352Z,30.81
2024-02-24T02:39:55.406Z,30.78
2024-02-24T02:40:55.421Z,30.74
2024-02-24T02:41:55.478Z,30.75
2024-02-24T02:42:55.511Z,30.86
2024-02-24T02:43:55.527Z,30.76
2024-02-24T02:44:55.563Z,30.78
2024-02-24T02:45:55.676Z,30.78
2024-02-24T02:46:55.620Z,30.81
2024-02-24T02:47:55.905Z,30.86
2024-02-24T02:48:55.843Z,30.78
2024-02-24T02:49:55.970Z,30.81
2024-02-24T02:50:55.792Z,30.83
2024-02-24T02:51:55.801Z,30.83
2024-02-24T02:52:55.874Z,30.86
2024-02-24T02:53:55.872Z,30.86
2024-02-24T02:54:55.885Z,30.80
2024-02-24T02:55:55.923Z,30.83
2024-02-24T02:56:55.961Z,30.91
2024-02-24T02:57:55.980Z,30.90
2024-02-24T02:58:56.019Z,30.84
2024-02-24T02:59:56.091Z,30.83
2024-02-24T03:00:56.138Z,30.86
2024-02-24T03:01:56.120Z,30.86
2024-02-24T03:02:56.200Z,30.86
2024-02-24T03:03:56.235Z,30.83
2024-02-24T03:04:56.230Z,30.78
2024-02-24T03:05:56.345Z,30.87
2024-02-24T03:06:56.299Z,30.83
2024-02-24T03:07:56.313Z,30.90
2024-02-24T03:08:57.217Z,30.83
2024-02-24T03:09:56.382Z,30.80
2024-02-24T03:10:56.480Z,30.78
2024-02-24T03:11:56.652Z,30.81
2024-02-24T03:12:56.485Z,30.90
2024-02-24T03:13:56.502Z,30.87
2024-02-24T03:14:56.537Z,30.87
2024-02-24T03:15:56.573Z,30.87
2024-02-24T03:16:56.571Z,30.90
2024-02-24T03:17:56.770Z,30.90
2024-02-24T03:18:56.738Z,30.90
2024-02-24T03:19:56.721Z,30.87
2024-02-24T03:20:56.933Z,30.89
2024-02-24T03:21:56.784Z,30.81
2024-02-24T03:22:56.840Z,30.84
2024-02-24T03:23:56.849Z,30.87
2024-02-24T03:24:56.865Z,30.84
2024-02-24T03:25:56.864Z,30.89
2024-02-24T03:26:56.954Z,30.84
2024-02-24T03:27:56.967Z,30.91
2024-02-24T03:28:56.996Z,30.89
2024-02-24T03:29:57.033Z,30.89
2024-02-24T03:30:57.070Z,30.89
2024-02-24T03:31:57.107Z,30.86
2024-02-24T03:32:57.322Z,30.78
2024-02-24T03:33:57.220Z,30.81
2024-02-24T03:34:57.216Z,30.74
2024-02-24T03:35:57.314Z,30.83
2024-02-24T03:36:57.271Z,30.78
2024-02-24T03:37:57.290Z,30.91
2024-02-24T03:38:57.382Z,30.74
2024-02-24T03:39:57.369Z,30.84
2024-02-24T03:40:57.393Z,30.80
2024-02-24T03:41:57.687Z,30.86
2024-02-24T03:42:57.465Z,30.80
2024-02-24T03:43:57.534Z,30.76
2024-02-24T03:44:57.589Z,30.80
2024-02-24T03:45:57.821Z,30.83
2024-02-24T03:46:57.603Z,30.78
2024-02-24T03:47:57.999Z,30.81
2024-02-24T03:48:57.759Z,30.76
2024-02-24T03:49:57.689Z,30.81
2024-02-24T03:50:57.720Z,30.78
2024-02-24T03:51:57.754Z,30.76
2024-02-24T03:52:57.794Z,30.78
2024-02-24T03:53:57.817Z,30.78
2024-02-24T03:54:57.960Z,30.69
2024-02-24T03:55:57.890Z,30.78
2024-02-24T03:56:57.937Z,30.81
2024-02-24T03:57:57.944Z,30.69
2024-02-24T03:58:57.986Z,30.76
2024-02-24T03:59:58.075Z,30.74
2024-02-24T04:00:58.134Z,30.78
2024-02-24T04:01:58.083Z,30.74
2024-02-24T04:02:58.117Z,30.76
2024-02-24T04:03:58.158Z,30.83
2024-02-24T04:04:58.278Z,30.80
2024-02-24T04:05:58.418Z,30.78
2024-02-24T04:06:58.305Z,30.80
2024-02-24T04:07:58.302Z,30.75
2024-02-24T04:08:58.352Z,30.78
2024-02-24T04:09:58.351Z,30.80
2024-02-24T04:10:58.480Z,30.90
2024-02-24T04:11:58.490Z,30.84
2024-02-24T04:12:58.438Z,30.78
2024-02-24T04:13:58.494Z,30.86
2024-02-24T04:14:58.514Z,30.80
2024-02-24T04:15:58.555Z,30.84
2024-02-24T04:16:58.610Z,30.89
2024-02-24T04:17:58.706Z,30.83
2024-02-24T04:18:58.707Z,30.74
2024-02-24T04:19:58.670Z,30.81
2024-02-24T04:20:58.806Z,30.83
2024-02-24T04:21:58.739Z,30.84
2024-02-24T04:22:58.769Z,30.87
2024-02-24T04:23:58.875Z,30.81
2024-02-24T04:24:58.871Z,30.86
2024-02-24T04:25:58.871Z,30.83
2024-02-24T04:26:58.988Z,30.76
2024-02-24T04:27:58.948Z,30.83
2024-02-24T04:28:59.013Z,30.89
2024-02-24T04:29:59.012Z,30.89
2024-02-24T04:30:59.055Z,30.87
2024-02-24T04:31:59.063Z,30.89
2024-02-24T04:32:59.253Z,30.86
2024-02-24T04:33:59.208Z,30.84
2024-02-24T04:34:59.403Z,30.76
2024-02-24T04:35:59.238Z,30.84
2024-02-24T04:36:59.239Z,30.87
2024-02-24T04:37:59.278Z,30.84
2024-02-24T04:38:59.307Z,30.87
2024-02-24T04:39:59.342Z,30.81
2024-02-24T04:40:59.374Z,30.84
2024-02-24T04:41:59.410Z,30.83
2024-02-24T04:42:59.451Z,30.90
2024-02-24T04:43:59.460Z,30.78
2024-02-24T04:44:59.497Z,30.90
2024-02-24T04:45:59.536Z,30.86
2024-02-24T04:46:59.579Z,30.84
2024-02-24T04:47:59.957Z,30.90
2024-02-24T04:48:59.739Z,30.90
2024-02-24T04:49:59.671Z,30.89
2024-02-24T04:51:02.878Z,30.84
2024-02-24T04:51:59.726Z,30.91
2024-02-24T04:52:59.757Z,30.94
2024-02-24T04:53:59.786Z,30.91
2024-02-24T04:54:59.820Z,30.90
2024-02-24T04:56:00.145Z,30.89
2024-02-24T04:56:59.899Z,30.90
2024-02-24T04:57:59.937Z,30.90
2024-02-24T04:58:59.995Z,30.91
2024-02-24T04:59:59.994Z,30.96
2024-02-24T05:01:00.102Z,30.94
2024-02-24T05:02:00.048Z,30.99
2024-02-24T05:03:00.173Z,30.90
2024-02-24T05:04:00.203Z,30.89
2024-02-24T05:05:00.216Z,30.90
2024-02-24T05:06:00.285Z,30.94
2024-02-24T05:07:00.248Z,31.01
2024-02-24T05:08:00.261Z,30.84
2024-02-24T05:09:00.382Z,30.90
2024-02-24T05:10:00.366Z,30.98
2024-02-24T05:11:00.367Z,30.89
2024-02-24T05:12:00.437Z,30.91
2024-02-24T05:13:02.953Z,30.89
2024-02-24T05:14:00.556Z,30.89
2024-02-24T05:15:00.584Z,30.90
2024-02-24T05:16:00.516Z,30.91
2024-02-24T05:17:00.546Z,30.91
2024-02-24T05:18:00.833Z,30.86
2024-02-24T05:19:00.666Z,30.89
2024-02-24T05:20:00.649Z,30.89
2024-02-24T05:21:00.717Z,30.84
2024-02-24T05:22:00.711Z,30.87
2024-02-24T05:23:00.752Z,30.86
2024-02-24T05:24:00.782Z,30.87
2024-02-24T05:25:00.834Z,30.90
2024-02-24T05:26:00.836Z,30.86
2024-02-24T05:27:00.886Z,30.89
2024-02-24T05:28:00.909Z,30.91
2024-02-24T05:29:00.943Z,30.94
2024-02-24T05:30:00.997Z,30.87
2024-02-24T05:31:01.044Z,30.89
2024-02-24T05:32:01.332Z,30.90
2024-02-24T05:33:01.169Z,30.89
2024-02-24T05:34:01.285Z,30.89
2024-02-24T05:35:01.177Z,30.87
2024-02-24T05:36:01.204Z,30.93
2024-02-24T05:37:01.201Z,30.91
2024-02-24T05:38:01.231Z,30.94
2024-02-24T05:39:01.278Z,30.87
2024-02-24T05:40:01.332Z,30.93
2024-02-24T05:41:01.354Z,30.87
2024-02-24T05:42:01.378Z,30.89
2024-02-24T05:43:01.422Z,30.87
2024-02-24T05:44:01.465Z,30.87
2024-02-24T05:45:01.466Z,30.86
2024-02-24T05:46:03.046Z,30.87
2024-02-24T05:47:01.558Z,30.91
2024-02-24T05:48:01.617Z,30.87
2024-02-24T05:49:01.684Z,30.90
2024-02-24T05:50:01.631Z,30.86
2024-02-24T05:51:01.725Z,30.90
2024-02-24T05:52:01.690Z,30.89
2024-02-24T05:53:01.778Z,30.91
2024-02-24T05:54:01.833Z,30.89
2024-02-24T05:55:01.804Z,30.86
2024-02-24T05:56:01.841Z,30.91
2024-02-24T05:57:01.884Z,30.89
2024-02-24T05:58:01.885Z,30.86
2024-02-24T05:59:01.959Z,30.86
2024-02-24T06:00:01.986Z,30.89
2024-02-24T06:01:02.073Z,30.89
2024-02-24T06:02:02.021Z,30.90
2024-02-24T06:03:02.293Z,30.89
2024-02-24T06:04:02.271Z,30.91
2024-02-24T06:05:02.140Z,30.90
2024-02-24T06:06:02.378Z,30.87
2024-02-24T06:07:02.245Z,30.91
2024-02-24T06:08:02.318Z,30.90
2024-02-24T06:09:02.306Z,30.89
2024-02-24T06:10:02.305Z,30.90
2024-02-24T06:11:02.352Z,30.93
2024-02-24T06:12:02.374Z,30.86
2024-02-24T06:13:02.389Z,30.87
2024-02-24T06:14:02.415Z,30.90
2024-02-24T06:15:02.473Z,30.90
2024-02-24T06:16:02.471Z,30.91
2024-02-24T06:17:02.546Z,30.84
2024-02-24T06:18:02.757Z,30.89
2024-02-24T06:19:02.673Z,30.94
2024-02-24T06:20:02.625Z,30.89
2024-02-24T06:21:02.739Z,30.93
2024-02-24T06:22:02.740Z,30.86
2024-02-24T06:23:02.738Z,30.90
2024-02-24T06:24:02.896Z,30.89
2024-02-24T06:25:02.777Z,30.81
2024-02-24T06:26:02.866Z,30.83
2024-02-24T06:27:02.815Z,30.89
2024-02-24T06:28:02.894Z,30.94
2024-02-24T06:29:02.928Z,30.87
2024-02-24T06:30:02.943Z,30.89
2024-02-24T06:31:03.028Z,30.86
2024-02-24T06:32:03.009Z,30.90
2024-02-24T06:33:03.213Z,30.87
2024-02-24T06:34:07.125Z,30.90
2024-02-24T06:35:03.185Z,30.89
2024-02-24T06:36:03.235Z,30.90
2024-02-24T06:37:03.179Z,30.81
2024-02-24T06:38:03.205Z,30.89
2024-02-24T06:39:03.221Z,30.89
2024-02-24T06:40:03.267Z,30.80
2024-02-24T06:41:03.323Z,30.76
2024-02-24T06:42:03.343Z,30.90
2024-02-24T06:43:03.372Z,30.83
2024-02-24T06:44:03.396Z,30.84
2024-02-24T06:45:03.458Z,30.84
2024-02-24T06:46:03.471Z,30.90
2024-02-24T06:47:14.123Z,30.87
2024-02-24T06:48:03.856Z,30.87
2024-02-24T06:49:04.180Z,30.94
2024-02-24T06:50:03.629Z,30.90
2024-02-24T06:51:03.667Z,30.90
2024-02-24T06:52:03.670Z,30.90
2024-02-24T06:53:03.692Z,30.91
2024-02-24T06:54:03.730Z,30.87
2024-02-24T06:55:03.826Z,30.94
2024-02-24T06:56:03.827Z,30.91
2024-02-24T06:57:03.847Z,30.87
2024-02-24T06:58:03.868Z,30.91
2024-02-24T06:59:03.919Z,30.94
2024-02-24T07:00:03.929Z,30.87
2024-02-24T07:01:04.042Z,30.87
2024-02-24T07:02:03.995Z,30.94
2024-02-24T07:03:04.203Z,30.96
2024-02-24T07:04:04.059Z,30.89
2024-02-24T07:05:04.088Z,30.99
2024-02-24T07:06:04.274Z,30.96
2024-02-24T07:07:04.265Z,30.94
2024-02-24T07:08:04.305Z,30.91
2024-02-24T07:09:04.228Z,30.86
2024-02-24T07:10:04.266Z,30.91
2024-02-24T07:11:04.320Z,30.86
2024-02-24T07:12:04.460Z,30.93
2024-02-24T07:13:04.379Z,30.91
2024-02-24T07:14:04.390Z,30.87
2024-02-24T07:15:04.414Z,30.84
2024-02-24T07:16:04.519Z,30.89
2024-02-24T07:17:04.504Z,30.87
2024-02-24T07:18:04.601Z,30.89
2024-02-24T07:19:04.556Z,30.91
2024-02-24T07:20:04.586Z,30.90
2024-02-24T07:21:04.856Z,30.94
2024-02-24T07:22:04.707Z,30.91
2024-02-24T07:23:04.716Z,30.84
2024-02-24T07:24:04.712Z,30.90
2024-02-24T07:25:04.750Z,30.87
2024-02-24T07:26:04.780Z,30.89
2024-02-24T07:27:04.858Z,30.91
2024-02-24T07:28:04.838Z,30.91
2024-02-24T07:29:04.887Z,30.86
2024-02-24T07:30:04.907Z,30.89
2024-02-24T07:31:04.974Z,30.89
2024-02-24T07:32:04.995Z,30.89
2024-02-24T07:33:05.298Z,30.90
2024-02-24T07:34:05.154Z,30.90
2024-02-24T07:35:05.079Z,30.89
2024-02-24T07:36:05.370Z,30.89
2024-02-24T07:37:05.149Z,30.90
2024-02-24T07:38:05.173Z,30.89
2024-02-24T07:39:05.275Z,30.89
2024-02-24T07:40:05.244Z,30.89
2024-02-24T07:41:05.294Z,30.90
2024-02-24T07:42:05.308Z,30.91
2024-02-24T07:43:05.367Z,30.89
2024-02-24T07:44:05.387Z,30.93
2024-02-24T07:45:05.469Z,30.91
2024-02-24T07:46:05.439Z,30.89
2024-02-24T07:47:05.462Z,30.99
2024-02-24T07:48:05.531Z,30.89
2024-02-24T07:49:05.571Z,30.91
2024-02-24T07:50:05.568Z,30.98
2024-02-24T07:51:05.637Z,30.93
2024-02-24T07:52:05.730Z,30.99
2024-02-24T07:53:05.673Z,31.02
2024-02-24T07:54:05.703Z,30.94
2024-02-24T07:55:05.788Z,30.99
2024-02-24T07:56:05.776Z,31.01
2024-02-24T07:57:05.851Z,30.98
2024-02-24T07:58:05.825Z,30.93
2024-02-24T07:59:05.866Z,30.94
2024-02-24T08:00:05.986Z,31.01
2024-02-24T08:01:05.936Z,30.99
2024-02-24T08:02:05.974Z,31.01
2024-02-24T08:03:05.958Z,31.01
2024-02-24T08:04:06.155Z,30.99
2024-02-24T08:05:06.117Z,30.99
2024-02-24T08:06:06.100Z,30.96
2024-02-24T08:07:06.284Z,31.01
2024-02-24T08:08:06.211Z,30.93
2024-02-24T08:09:06.192Z,31.01
2024-02-24T08:10:06.226Z,30.98
2024-02-24T08:11:06.294Z,30.98
2024-02-24T08:12:06.345Z,30.93
2024-02-24T08:13:06.359Z,30.98
2024-02-24T08:14:06.354Z,30.99
2024-02-24T08:15:06.455Z,30.93
2024-02-24T08:16:06.472Z,30.96
2024-02-24T08:17:06.453Z,30.89
2024-02-24T08:18:06.568Z,30.96
2024-02-24T08:19:06.621Z,30.96
2024-02-24T08:20:06.568Z,30.93
2024-02-24T08:21:06.632Z,31.02
2024-02-24T08:22:06.628Z,30.98
2024-02-24T08:23:06.650Z,30.91
2024-02-24T08:24:06.718Z,31.01
2024-02-24T08:25:06.717Z,31.02
2024-02-24T08:26:06.768Z,30.89
2024-02-24T08:27:06.851Z,30.91
2024-02-24T08:28:06.824Z,30.87
2024-02-24T08:29:06.865Z,30.87
2024-02-24T08:30:06.904Z,30.94
2024-02-24T08:31:06.916Z,30.90
2024-02-24T08:32:06.962Z,30.91
2024-02-24T08:33:07.111Z,30.87
2024-02-24T08:34:07.144Z,30.93
2024-02-24T08:35:07.094Z,30.87
2024-02-24T08:36:07.239Z,30.89
2024-02-24T08:37:07.123Z,30.94
2024-02-24T08:38:07.163Z,30.99
2024-02-24T08:39:07.307Z,30.91
2024-02-24T08:40:07.231Z,31.02
2024-02-24T08:41:07.273Z,30.91
2024-02-24T08:42:07.278Z,30.99
2024-02-24T08:43:07.348Z,31.02
2024-02-24T08:44:07.355Z,31.02
2024-02-24T08:45:07.378Z,30.96
2024-02-24T08:46:09.154Z,30.93
2024-02-24T08:47:07.441Z,31.04
2024-02-24T08:48:07.678Z,30.94
2024-02-24T08:49:07.512Z,30.96
2024-02-24T08:50:07.563Z,31.01
2024-02-24T08:51:07.678Z,30.89
2024-02-24T08:52:07.625Z,31.05
2024-02-24T08:53:07.654Z,31.01
2024-02-24T08:54:07.677Z,31.01
2024-02-24T08:55:07.698Z,30.98
2024-02-24T08:56:07.735Z,31.02
2024-02-24T08:57:07.788Z,31.01
2024-02-24T08:58:07.805Z,30.99
2024-02-24T08:59:07.866Z,30.99
2024-02-24T09:00:07.994Z,30.96
2024-02-24T09:01:07.963Z,31.02
2024-02-24T09:02:07.965Z,30.93
2024-02-24T09:03:08.026Z,30.96
2024-02-24T09:04:08.024Z,31.01
2024-02-24T09:05:08.054Z,31.04
2024-02-24T09:06:08.170Z,31.04
2024-02-24T09:07:08.188Z,31.01
2024-02-24T09:08:08.166Z,31.01
2024-02-24T09:09:08.162Z,30.98
2024-02-24T09:10:09.301Z,31.02
2024-02-24T09:11:08.331Z,30.93
2024-02-24T09:12:08.331Z,30.94
2024-02-24T09:13:08.327Z,30.90
2024-02-24T09:14:08.386Z,30.98
2024-02-24T09:15:08.405Z,30.98
2024-02-24T09:16:08.433Z,30.98
2024-02-24T09:17:08.449Z,31.01
2024-02-24T09:18:08.697Z,30.99
2024-02-24T09:19:08.573Z,31.01
2024-02-24T09:20:08.528Z,30.96
2024-02-24T09:21:09.836Z,30.94
2024-02-24T09:22:08.597Z,30.91
2024-02-24T09:23:08.630Z,30.98
2024-02-24T09:24:08.682Z,30.99
2024-02-24T09:25:08.719Z,30.98
2024-02-24T09:26:08.733Z,31.01
2024-02-24T09:27:08.797Z,30.94
2024-02-24T09:28:11.073Z,30.94
2024-02-24T09:29:08.841Z,30.99
2024-02-24T09:30:08.904Z,30.93
2024-02-24T09:31:08.923Z,30.96
2024-02-24T09:32:08.939Z,31.01
2024-02-24T09:33:09.356Z,30.98
2024-02-24T09:34:11.015Z,30.94
2024-02-24T09:35:09.029Z,30.94
2024-02-24T09:36:09.127Z,30.94
2024-02-24T09:37:09.076Z,31.02
2024-02-24T09:38:09.141Z,31.02
2024-02-24T09:39:09.141Z,30.99
2024-02-24T09:40:09.179Z,30.93
2024-02-24T09:41:09.252Z,30.96
2024-02-24T09:42:09.253Z,30.98
2024-02-24T09:43:09.304Z,30.98
2024-02-24T09:44:09.379Z,31.01
2024-02-24T09:45:09.489Z,30.93
2024-02-24T09:46:09.414Z,30.98
2024-02-24T09:47:09.457Z,31.04
2024-02-24T09:48:09.642Z,31.01
2024-02-24T09:49:09.906Z,30.94
2024-02-24T09:50:09.514Z,31.01
2024-02-24T09:51:09.572Z,30.98
2024-02-24T09:52:09.616Z,31.01
2024-02-24T09:53:09.610Z,31.02
2024-02-24T09:54:09.646Z,31.01
2024-02-24T09:55:09.741Z,30.98
2024-02-24T09:56:09.754Z,30.93
2024-02-24T09:57:09.751Z,31.04
2024-02-24T09:58:09.775Z,31.01
2024-02-24T09:59:09.826Z,30.96
2024-02-24T10:00:09.840Z,30.98
2024-02-24T10:01:09.909Z,31.01
2024-02-24T10:02:09.912Z,31.01
2024-02-24T10:03:10.304Z,31.04
2024-02-24T10:04:09.969Z,30.96
2024-02-24T10:05:10.064Z,30.96
2024-02-24T10:06:10.385Z,31.02
2024-02-24T10:07:10.084Z,30.98
2024-02-24T10:08:10.176Z,31.01
2024-02-24T10:09:10.181Z,30.96
2024-02-24T10:10:10.168Z,30.99
2024-02-24T10:11:10.330Z,30.98
2024-02-24T10:12:10.259Z,30.96
2024-02-24T10:13:10.270Z,30.98
2024-02-24T10:14:10.413Z,31.02
2024-02-24T10:15:10.340Z,31.01
2024-02-24T10:16:10.372Z,31.01
2024-02-24T10:17:10.493Z,30.99
2024-02-24T10:18:10.587Z,31.05
2024-02-24T10:19:10.660Z,31.01
2024-02-24T10:20:10.544Z,31.01
2024-02-24T10:21:10.526Z,31.04
2024-02-24T10:22:10.564Z,30.99
2024-02-24T10:23:10.669Z,30.91
2024-02-24T10:24:10.667Z,31.04
2024-02-24T10:25:10.670Z,31.05
2024-02-24T10:26:10.820Z,30.98
2024-02-24T10:27:10.747Z,31.01
2024-02-24T10:28:10.772Z,31.01
2024-02-24T10:29:10.859Z,30.96
2024-02-24T10:30:10.852Z,30.94
2024-02-24T10:31:10.907Z,30.96
2024-02-24T10:32:10.892Z,31.01
2024-02-24T10:33:11.043Z,30.99
2024-02-24T10:34:11.076Z,31.05
2024-02-24T10:35:11.064Z,31.04
2024-02-24T10:36:11.277Z,31.02
2024-02-24T10:37:11.081Z,31.04
2024-02-24T10:38:23.234Z,31.01
2024-02-24T10:39:11.142Z,31.01
2024-02-24T10:40:11.151Z,31.02
2024-02-24T10:41:11.260Z,31.06
2024-02-24T10:42:11.350Z,31.02
2024-02-24T10:43:11.465Z,31.01
2024-02-24T10:44:18.877Z,31.02
2024-02-24T10:45:11.414Z,30.98
2024-02-24T10:46:11.416Z,31.09
2024-02-24T10:47:11.439Z,31.09
2024-02-24T10:48:11.650Z,31.06
2024-02-24T10:49:11.553Z,31.08
2024-02-24T10:50:11.487Z,31.04
2024-02-24T10:51:11.550Z,31.05
2024-02-24T10:52:11.556Z,31.08
2024-02-24T10:53:11.722Z,31.08
2024-02-24T10:54:11.879Z,31.02
2024-02-24T10:55:11.653Z,31.02
2024-02-24T10:56:11.790Z,31.09
2024-02-24T10:57:11.723Z,31.05
2024-02-24T10:58:11.774Z,31.09
2024-02-24T10:59:11.971Z,31.04
2024-02-24T11:00:11.842Z,31.09
2024-02-24T11:01:12.708Z,31.06
2024-02-24T11:02:12.010Z,31.01
2024-02-24T11:03:11.901Z,31.06
2024-02-24T11:04:12.080Z,31.09
2024-02-24T11:05:11.993Z,31.09
2024-02-24T11:06:12.077Z,31.06
2024-02-24T11:07:12.373Z,31.05
2024-02-24T11:08:12.200Z,31.08
2024-02-24T11:09:12.125Z,31.05
2024-02-24T11:10:12.140Z,31.06
2024-02-24T11:11:12.621Z,31.08
2024-02-24T11:12:12.579Z,31.06
2024-02-24T11:13:12.236Z,31.04
2024-02-24T11:14:12.402Z,31.06
2024-02-24T11:15:12.303Z,30.99
2024-02-24T11:16:12.333Z,31.04
2024-02-24T11:17:12.771Z,30.99
2024-02-24T11:18:12.569Z,30.99
2024-02-24T11:19:13.513Z,30.98
2024-02-24T11:20:12.524Z,31.04
2024-02-24T11:21:12.517Z,31.01
2024-02-24T11:22:12.565Z,31.01
2024-02-24T11:23:12.755Z,31.04
2024-02-24T11:24:12.579Z,31.01
2024-02-24T11:25:12.651Z,31.04
2024-02-24T11:26:12.705Z,31.01
2024-02-24T11:27:12.776Z,31.01
2024-02-24T11:28:12.732Z,31.01
2024-02-24T11:29:12.794Z,31.01
2024-02-24T11:30:12.812Z,31.02
2024-02-24T11:31:12.875Z,31.01
2024-02-24T11:32:13.139Z,31.01
2024-02-24T11:33:13.191Z,31.04
2024-02-24T11:34:13.104Z,31.02
2024-02-24T11:35:13.050Z,31.01
2024-02-24T11:36:13.015Z,31.01
2024-02-24T11:37:13.030Z,31.02
2024-02-24T11:38:13.068Z,31.01
2024-02-24T11:39:13.361Z,31.02
2024-02-24T11:40:13.133Z,31.04
2024-02-24T11:41:13.206Z,31.04
2024-02-24T11:42:13.202Z,30.98
2024-02-24T11:43:13.223Z,31.02
2024-02-24T11:44:13.301Z,30.98
2024-02-24T11:45:13.305Z,31.02
2024-02-24T11:46:13.323Z,31.04
2024-02-24T11:47:13.416Z,31.01
2024-02-24T11:48:13.592Z,31.04
2024-02-24T11:49:13.483Z,31.05
2024-02-24T11:50:13.511Z,31.04
2024-02-24T11:51:13.493Z,31.06
2024-02-24T11:52:13.531Z,31.02
2024-02-24T11:53:13.687Z,31.04
2024-02-24T11:54:13.817Z,31.05
2024-02-24T11:55:13.652Z,31.05
2024-02-24T11:56:13.694Z,31.08
2024-02-24T11:57:14.068Z,31.08
2024-02-24T11:58:13.722Z,31.12
2024-02-24T11:59:13.768Z,31.08
2024-02-24T12:00:13.789Z,31.11
2024-02-24T12:01:13.903Z,31.08
2024-02-24T12:02:13.909Z,31.08
2024-02-24T12:03:13.965Z,31.05
2024-02-24T12:04:13.967Z,31.09
2024-02-24T12:05:14.039Z,31.11
2024-02-24T12:06:14.114Z,31.04
2024-02-24T12:07:14.048Z,31.06
2024-02-24T12:08:14.060Z,30.99
2024-02-24T12:09:14.096Z,31.05
2024-02-24T12:10:14.114Z,31.06
2024-02-24T12:11:14.247Z,31.06
2024-02-24T12:12:14.201Z,31.05
2024-02-24T12:13:14.503Z,31.05
2024-02-24T12:14:14.291Z,31.04
2024-02-24T12:15:14.303Z,31.04
2024-02-24T12:16:14.572Z,31.04
2024-02-24T12:17:14.423Z,31.02
2024-02-24T12:18:14.654Z,31.01
2024-02-24T12:19:14.471Z,31.02
2024-02-24T12:20:14.512Z,31.04
2024-02-24T12:21:14.585Z,31.04
2024-02-24T12:22:14.508Z,31.04
2024-02-24T12:23:14.574Z,31.01
2024-02-24T12:24:14.579Z,31.06
2024-02-24T12:25:14.608Z,31.05
2024-02-24T12:26:14.769Z,31.01
2024-02-24T12:27:14.740Z,31.01
2024-02-24T12:28:14.710Z,30.99
2024-02-24T12:29:14.839Z,30.99
2024-02-24T12:30:14.916Z,30.98
2024-02-24T12:31:14.835Z,30.98
2024-02-24T12:32:14.884Z,30.98
2024-02-24T12:33:17.727Z,30.99
2024-02-24T12:34:15.232Z,31.02
2024-02-24T12:35:14.971Z,30.99
2024-02-24T12:36:15.033Z,31.02
2024-02-24T12:37:15.053Z,31.04
2024-02-24T12:38:15.246Z,31.02
2024-02-24T12:39:15.193Z,31.05
2024-02-24T12:40:15.125Z,30.98
2024-02-24T12:41:15.191Z,30.98
2024-02-24T12:42:15.174Z,31.02
2024-02-24T12:43:15.227Z,31.05
2024-02-24T12:44:15.243Z,31.05
2024-02-24T12:45:15.281Z,31.04
2024-02-24T12:46:15.302Z,31.05
2024-02-24T12:47:15.359Z,31.05
2024-02-24T12:48:15.463Z,31.04
2024-02-24T12:49:15.529Z,31.06
2024-02-24T12:50:15.516Z,31.08
2024-02-24T12:51:15.477Z,31.02
2024-02-24T12:52:15.494Z,31.02
2024-02-24T12:53:15.586Z,31.08